Time;durP1;ratioP1;P1;durP2;ratioP2;P2;SDS_P1;SDS_P2;PMS_P1;PMS_P2;Temp;Humidity;BMP_temperature;BMP_pressure;BME280_temperature;BME280_humidity;BME280_pressure;Samples;Min_cycle;Max_cycle;Signal;HPM_P1;HPM_P2
2022/04/26 03:38:11;;;;;;;2.55;1.70;;;8.40;44.40;;;;;;5053906;28;20401;-35
2022/04/26 03:40:37;;;;;;;5.67;2.90;;;8.30;44.40;;;;;;5053741;28;20660;-34
2022/04/26 03:43:03;;;;;;;7.63;2.80;;;8.30;44.30;;;;;;5053694;28;20777;-35
2022/04/26 03:45:28;;;;;;;3.30;2.30;;;8.30;44.40;;;;;;5053611;28;20175;-34
2022/04/26 03:47:54;;;;;;;3.87;2.30;;;8.30;44.60;;;;;;5053714;28;20662;-35
2022/04/26 03:50:21;;;;;;;4.43;2.70;;;8.30;44.40;;;;;;5053217;28;20191;-35
2022/04/26 03:52:47;;;;;;;3.60;2.60;;;8.30;44.40;;;;;;5053512;28;20197;-34
2022/04/26 03:55:12;;;;;;;3.00;2.00;;;8.30;44.50;;;;;;5053290;28;20184;-34
2022/04/26 03:57:38;;;;;;;8.03;2.80;;;8.20;44.40;;;;;;5053306;28;20237;-35
2022/04/26 04:00:05;;;;;;;5.27;2.60;;;8.20;44.30;;;;;;5053263;28;20199;-35
2022/04/26 04:02:30;;;;;;;4.70;2.45;;;8.20;44.40;;;;;;5053087;28;20175;-35
2022/04/26 04:04:56;;;;;;;4.30;2.87;;;8.20;44.40;;;;;;5053084;28;20171;-35
2022/04/26 04:07:22;;;;;;;6.40;2.90;;;8.20;44.30;;;;;;5053196;28;20189;-35
2022/04/26 04:09:47;;;;;;;3.63;2.00;;;8.20;44.30;;;;;;5052977;28;20179;-35
2022/04/26 04:12:13;;;;;;;2.83;2.03;;;8.10;44.40;;;;;;5052646;28;20183;-35
2022/04/26 04:14:39;;;;;;;3.30;2.03;;;8.10;44.50;;;;;;5052904;28;20208;-35
2022/04/26 04:17:05;;;;;;;4.50;2.30;;;8.10;44.50;;;;;;5052831;28;20230;-35
2022/04/26 04:19:31;;;;;;;3.47;2.30;;;8.00;44.50;;;;;;5052872;28;20183;-35
2022/04/26 04:21:57;;;;;;;4.07;1.92;;;8.10;44.50;;;;;;5052577;28;20571;-35
2022/04/26 04:24:22;;;;;;;6.33;2.73;;;8.10;44.50;;;;;;5052731;28;20177;-35
2022/04/26 04:26:48;;;;;;;7.37;3.97;;;8.10;44.40;;;;;;5052402;28;20212;-35
2022/04/26 04:29:14;;;;;;;5.70;3.00;;;8.10;44.50;;;;;;5053026;28;20164;-35
2022/04/26 04:31:41;;;;;;;4.27;2.40;;;8.10;44.60;;;;;;5052482;28;20408;-35
2022/04/26 04:34:06;;;;;;;3.17;1.98;;;8.10;44.60;;;;;;5052431;28;20213;-35
2022/04/26 04:36:32;;;;;;;4.10;2.50;;;8.10;44.70;;;;;;5052746;28;20173;-35
2022/04/26 04:38:58;;;;;;;2.83;2.40;;;8.20;44.90;;;;;;5051672;28;20766;-35
2022/04/26 04:41:24;;;;;;;3.15;2.80;;;8.20;44.80;;;;;;5052187;28;20184;-35
2022/04/26 04:43:50;;;;;;;3.05;1.90;;;8.20;44.90;;;;;;5052463;28;20183;-34
2022/04/26 04:46:16;;;;;;;5.73;2.67;;;8.20;44.90;;;;;;5052313;28;20264;-34
2022/04/26 04:48:42;;;;;;;4.40;2.30;;;8.30;45.20;;;;;;5052088;28;20488;-35
2022/04/26 04:51:07;;;;;;;4.57;2.90;;;8.30;45.60;;;;;;5052331;28;20231;-35
2022/04/26 04:53:34;;;;;;;3.30;2.03;;;8.30;45.50;;;;;;5052304;28;20201;-35
2022/04/26 04:56:00;;;;;;;6.40;3.17;;;8.30;45.80;;;;;;5052447;28;20173;-35
2022/04/26 04:58:26;;;;;;;5.25;2.72;;;8.30;46.10;;;;;;5052287;28;20282;-34
2022/04/26 05:00:52;;;;;;;5.20;3.10;;;8.20;46.30;;;;;;5051997;28;20262;-35
2022/04/26 05:03:18;;;;;;;6.85;3.10;;;8.20;46.30;;;;;;5052009;28;20187;-34
2022/04/26 05:05:43;;;;;;;5.13;2.33;;;8.20;46.50;;;;;;5052576;28;20189;-35
2022/04/26 05:08:10;;;;;;;5.80;3.80;;;8.30;46.50;;;;;;5052206;28;20192;-34
2022/04/26 05:10:36;;;;;;;7.28;3.55;;;8.40;46.60;;;;;;5051775;28;20180;-34
2022/04/26 05:13:03;;;;;;;4.97;2.58;;;8.40;46.60;;;;;;5052145;28;20197;-34
2022/04/26 05:15:29;;;;;;;5.10;2.63;;;8.40;47.10;;;;;;5052022;28;20213;-34
2022/04/26 05:17:55;;;;;;;8.57;3.57;;;8.40;46.90;;;;;;5051771;28;20273;-34
2022/04/26 05:20:21;;;;;;;6.47;3.05;;;8.40;47.10;;;;;;5051716;28;20194;-34
2022/04/26 05:25:39;;;;;;;6.35;3.45;;;8.60;47.40;;;;;;5052120;28;20167;-35
2022/04/26 05:28:05;;;;;;;5.10;2.63;;;8.60;47.70;;;;;;5051471;28;20730;-35
2022/04/26 05:30:31;;;;;;;3.03;2.17;;;8.60;47.30;;;;;;5051520;28;20170;-35
2022/04/26 05:32:56;;;;;;;4.67;2.13;;;8.70;47.30;;;;;;5051693;28;20277;-34
2022/04/26 05:35:23;;;;;;;4.97;2.93;;;8.70;47.20;;;;;;5052004;28;20201;-34
2022/04/26 05:37:49;;;;;;;7.20;3.38;;;8.80;47.20;;;;;;5051858;28;20234;-34
2022/04/26 05:40:15;;;;;;;4.57;2.90;;;8.90;47.30;;;;;;5051541;28;20651;-34
2022/04/26 05:42:40;;;;;;;5.72;3.95;;;9.00;47.00;;;;;;5051377;28;20843;-34
2022/04/26 05:45:07;;;;;;;6.33;3.57;;;9.10;47.00;;;;;;5051556;28;20205;-34
2022/04/26 05:47:33;;;;;;;5.07;3.10;;;9.30;47.30;;;;;;5051907;28;20260;-34
2022/04/26 05:49:59;;;;;;;4.15;2.67;;;9.40;47.00;;;;;;5052082;28;20183;-35
2022/04/26 05:52:25;;;;;;;10.80;3.60;;;9.50;47.10;;;;;;5055290;28;20176;-35
2022/04/26 05:54:53;;;;;;;7.30;2.90;;;9.50;47.10;;;;;;5055744;28;20177;-35
2022/04/26 05:57:19;;;;;;;4.50;2.88;;;9.60;46.60;;;;;;5055689;28;20193;-35
2022/04/26 05:59:45;;;;;;;5.90;4.13;;;9.70;47.20;;;;;;5055596;28;20180;-35
2022/04/26 06:02:10;;;;;;;5.13;3.03;;;9.80;47.00;;;;;;5055069;28;20404;-35
2022/04/26 06:04:38;;;;;;;4.33;2.47;;;10.00;46.60;;;;;;5055662;28;20180;-35
2022/04/26 06:07:04;;;;;;;7.65;4.13;;;10.10;46.60;;;;;;5055234;28;20504;-35
2022/04/26 06:09:30;;;;;;;7.67;4.57;;;10.10;46.40;;;;;;5055572;28;20645;-35
2022/04/26 06:11:57;;;;;;;7.37;3.03;;;10.20;46.20;;;;;;5055237;28;20849;-35
2022/04/26 06:14:23;;;;;;;6.15;3.05;;;10.20;46.00;;;;;;5055100;28;20455;-35
2022/04/26 06:16:49;;;;;;;7.53;3.30;;;10.10;46.40;;;;;;5054953;28;20204;-35
2022/04/26 06:19:15;;;;;;;6.57;3.10;;;10.10;46.40;;;;;;5055264;28;20415;-35
2022/04/26 06:21:40;;;;;;;8.10;3.60;;;10.20;46.40;;;;;;5054968;28;20642;-35
2022/04/26 06:24:06;;;;;;;5.30;3.50;;;10.30;46.50;;;;;;5037301;28;20777;-35
2022/04/26 06:26:32;;;;;;;3.40;2.83;;;10.40;46.50;;;;;;5054997;28;20185;-35
2022/04/26 06:28:57;;;;;;;6.80;3.80;;;10.60;46.50;;;;;;5054933;28;20188;-35
2022/04/26 06:31:23;;;;;;;6.10;3.83;;;10.80;46.30;;;;;;5054880;28;20188;-35
2022/04/26 06:33:49;;;;;;;4.83;3.20;;;11.00;46.10;;;;;;5054931;28;20569;-35
2022/04/26 06:36:14;;;;;;;8.07;3.97;;;11.20;45.80;;;;;;5055026;28;20631;-35
2022/04/26 06:38:40;;;;;;;6.03;3.60;;;11.30;45.50;;;;;;5054685;28;20223;-35
2022/04/26 06:41:06;;;;;;;7.73;4.40;;;11.50;45.20;;;;;;5054299;28;20519;-35
2022/04/26 06:43:33;;;;;;;8.13;4.60;;;11.60;45.10;;;;;;5054641;28;20863;-35
2022/04/26 06:46:00;;;;;;;7.32;4.10;;;11.80;45.20;;;;;;5054578;28;20650;-35
2022/04/26 06:48:26;;;;;;;5.57;4.45;;;11.90;44.90;;;;;;5054392;28;20597;-35
2022/04/26 06:50:55;;;;;;;7.27;4.37;;;12.10;44.90;;;;;;5054328;28;20183;-35
2022/04/26 06:53:21;;;;;;;7.65;3.88;;;12.20;44.20;;;;;;5054513;28;20455;-35
2022/04/26 06:55:46;;;;;;;6.20;3.20;;;12.20;44.10;;;;;;5054392;28;20177;-35
2022/04/26 06:58:12;;;;;;;7.43;3.93;;;12.30;44.40;;;;;;5054350;28;20435;-35
2022/04/26 07:00:38;;;;;;;6.43;4.50;;;12.50;43.60;;;;;;5054438;28;20647;-35
2022/04/26 07:03:04;;;;;;;9.10;4.90;;;12.50;43.60;;;;;;5053400;28;20224;-35
2022/04/26 07:05:30;;;;;;;7.45;5.30;;;12.60;43.60;;;;;;5054534;28;20185;-35
2022/04/26 07:07:56;;;;;;;10.60;5.03;;;12.60;43.60;;;;;;5054209;28;20190;-35
2022/04/26 07:10:22;;;;;;;8.50;4.27;;;12.70;43.50;;;;;;5054173;28;20495;-35
2022/04/26 07:12:48;;;;;;;7.63;4.65;;;12.80;43.30;;;;;;5054162;28;20509;-35
2022/04/26 07:15:14;;;;;;;9.45;5.13;;;12.80;43.60;;;;;;5036435;28;20189;-35
2022/04/26 07:17:46;;;;;;;9.73;4.87;;;12.90;43.10;;;;;;5054063;28;20659;-35
2022/04/26 07:20:12;;;;;;;6.38;4.90;;;13.00;42.70;;;;;;5053953;28;20388;-35
2022/04/26 07:22:38;;;;;;;12.30;4.73;;;13.10;43.20;;;;;;5053900;28;20177;-35
2022/04/26 07:25:06;;;;;;;8.05;5.47;;;13.20;42.60;;;;;;5053801;28;20566;-35
2022/04/26 07:27:32;;;;;;;10.75;4.65;;;13.30;42.40;;;;;;5053744;28;20216;-35
2022/04/26 07:29:57;;;;;;;9.10;5.67;;;13.40;43.10;;;;;;5053937;28;20581;-35
2022/04/26 07:35:10;;;;;;;7.35;4.10;;;13.80;42.30;;;;;;5053962;28;20203;-35
2022/04/26 07:37:36;;;;;;;7.00;4.93;;;14.00;42.30;;;;;;5053763;28;20197;-35
2022/04/26 07:40:03;;;;;;;11.25;5.85;;;14.20;42.00;;;;;;5053578;28;20605;-35
2022/04/26 07:42:28;;;;;;;10.63;4.32;;;14.30;41.90;;;;;;5053560;28;20185;-35
2022/04/26 07:44:54;;;;;;;8.10;4.97;;;14.50;41.70;;;;;;5053391;28;20582;-35
2022/04/26 07:47:22;;;;;;;7.43;5.23;;;14.70;42.00;;;;;;5052103;28;20709;-35
2022/04/26 07:49:48;;;;;;;9.98;5.88;;;14.90;41.80;;;;;;5053675;28;20650;-35
2022/04/26 07:52:15;;;;;;;11.73;5.80;;;15.10;42.10;;;;;;5053340;28;20182;-35
2022/04/26 07:54:42;;;;;;;8.15;5.50;;;15.40;41.70;;;;;;5053278;28;20550;-35
2022/04/26 07:57:07;;;;;;;11.35;5.60;;;15.60;41.10;;;;;;5053135;28;20201;-35
2022/04/26 07:59:33;;;;;;;10.67;6.83;;;15.80;41.30;;;;;;5053308;28;20174;-35
2022/04/26 08:01:59;;;;;;;15.87;7.40;;;16.10;41.80;;;;;;5053263;28;20169;-35
2022/04/26 08:04:24;;;;;;;9.53;6.83;;;16.30;39.80;;;;;;5053332;28;20184;-35
2022/04/26 08:06:50;;;;;;;10.20;6.97;;;16.30;39.50;;;;;;5053258;28;20205;-35
2022/04/26 08:09:16;;;;;;;13.07;6.40;;;16.30;38.60;;;;;;5053023;28;20180;-35
2022/04/26 08:11:41;;;;;;;10.20;6.93;;;16.40;38.70;;;;;;5052747;28;20223;-35
2022/04/26 08:14:07;;;;;;;14.60;6.93;;;16.50;39.90;;;;;;5052842;28;20208;-35
2022/04/26 08:16:33;;;;;;;13.13;6.83;;;16.50;37.80;;;;;;5052936;28;20173;-35
2022/04/26 08:18:59;;;;;;;9.83;5.80;;;16.60;38.60;;;;;;5053137;28;20173;-35
2022/04/26 08:21:25;;;;;;;13.32;7.50;;;16.80;38.60;;;;;;5052544;28;20611;-35
2022/04/26 08:29:19;;;;;;;10.15;7.15;;;17.10;38.10;;;;;;5052952;28;20268;-35
2022/04/26 08:31:45;;;;;;;11.10;8.35;;;17.30;38.50;;;;;;5052616;28;20182;-35
2022/04/26 08:34:11;;;;;;;10.97;6.67;;;17.50;38.60;;;;;;5052739;28;20543;-35
2022/04/26 08:36:36;;;;;;;13.03;8.37;;;17.70;37.20;;;;;;5052411;28;20576;-35
2022/04/26 08:39:03;;;;;;;9.07;5.63;;;17.90;38.20;;;;;;5052430;28;20173;-35
2022/04/26 08:41:29;;;;;;;10.05;7.18;;;18.10;37.80;;;;;;5052251;28;20590;-35
2022/04/26 08:43:55;;;;;;;9.15;6.50;;;18.30;35.70;;;;;;5052402;28;20181;-35
2022/04/26 08:46:21;;;;;;;9.82;6.47;;;18.40;36.20;;;;;;5052404;28;20188;-35
2022/04/26 08:51:31;;;;;;;8.57;6.07;;;18.30;34.50;;;;;;5065608;23;20244;-31
2022/04/26 08:53:58;;;;;;;10.87;6.63;;;18.20;35.20;;;;;;5032216;28;20210;-32
2022/04/26 08:56:24;;;;;;;8.70;5.38;;;18.30;36.80;;;;;;5032529;28;20586;-31
2022/04/26 08:58:50;;;;;;;8.13;4.90;;;18.60;35.50;;;;;;5032546;28;20177;-31
2022/04/26 09:01:23;;;;;;;7.50;4.47;;;18.60;35.20;;;;;;5032026;28;20173;-31
2022/04/26 09:03:55;;;;;;;10.05;6.20;;;18.70;35.40;;;;;;5032209;28;20594;-31
2022/04/26 09:06:39;;;;;;;7.18;5.32;;;18.90;33.80;;;;;;5032434;28;20166;-31
2022/04/26 09:09:15;;;;;;;8.00;5.05;;;19.00;35.30;;;;;;5032422;28;20173;-31
2022/04/26 09:11:42;;;;;;;13.25;5.00;;;19.30;35.90;;;;;;5031886;28;20259;-31
2022/04/26 09:14:11;;;;;;;9.48;5.47;;;19.60;35.70;;;;;;5031884;28;20289;-32
2022/04/26 09:16:37;;;;;;;8.25;5.85;;;19.70;33.70;;;;;;5032243;28;20181;-31
2022/04/26 09:19:06;;;;;;;9.77;5.67;;;19.90;33.60;;;;;;5031991;28;20178;-31
2022/04/26 09:21:33;;;;;;;7.78;4.70;;;20.10;35.00;;;;;;5031659;28;20501;-31
2022/04/26 09:24:04;;;;;;;9.45;4.40;;;20.20;31.80;;;;;;5031710;28;20574;-32
2022/04/26 09:26:40;;;;;;;6.72;4.95;;;20.10;31.80;;;;;;5031299;28;20170;-29
2022/04/26 09:29:07;;;;;;;6.55;4.80;;;20.10;33.40;;;;;;5031892;28;20666;-29
2022/04/26 09:31:34;;;;;;;5.80;4.05;;;20.20;33.20;;;;;;5031807;28;20267;-31
2022/04/26 09:34:10;;;;;;;5.93;4.97;;;20.40;33.30;;;;;;5031875;28;20209;-32
2022/04/26 09:36:43;;;;;;;5.63;3.55;;;20.60;33.80;;;;;;5031778;28;20511;-31
2022/04/26 09:39:09;;;;;;;3.78;2.67;;;20.90;31.90;;;;;;5031720;28;20173;-31
2022/04/26 09:41:35;;;;;;;8.77;4.70;;;21.20;33.70;;;;;;5031600;28;20193;-31
2022/04/26 09:44:06;;;;;;;4.85;3.75;;;21.40;33.30;;;;;;5031317;28;20166;-32
2022/04/26 09:46:41;;;;;;;5.22;3.97;;;21.50;30.90;;;;;;5031617;28;20647;-32
2022/04/26 09:49:11;;;;;;;6.78;4.30;;;21.60;32.70;;;;;;5031573;28;20207;-31
2022/04/26 09:51:40;;;;;;;4.00;2.70;;;21.70;30.80;;;;;;5031465;28;20210;-32
2022/04/26 09:54:07;;;;;;;4.65;3.00;;;21.70;32.10;;;;;;5031704;28;20206;-32
2022/04/26 09:56:33;;;;;;;5.57;3.85;;;21.90;32.50;;;;;;5031821;28;20181;-31
2022/04/26 09:59:00;;;;;;;6.72;3.22;;;21.90;32.00;;;;;;5031879;28;20249;-32
2022/04/26 10:01:47;;;;;;;4.95;2.92;;;21.90;32.10;;;;;;5031321;28;20288;-32
2022/04/26 10:04:21;;;;;;;6.10;3.73;;;22.00;32.70;;;;;;5031592;28;20586;-31
2022/04/26 10:06:51;;;;;;;4.60;3.03;;;22.00;32.20;;;;;;5031553;28;20408;-32
2022/04/26 10:09:17;;;;;;;3.72;3.20;;;22.00;31.80;;;;;;5031568;28;20189;-31
2022/04/26 10:11:43;;;;;;;6.15;3.60;;;21.80;30.10;;;;;;5031198;28;20190;-31
2022/04/26 10:14:10;;;;;;;4.30;2.70;;;21.60;31.90;;;;;;5031640;28;20206;-32
2022/04/26 10:16:37;;;;;;;5.75;3.10;;;21.50;32.10;;;;;;5031366;28;20172;-32
2022/04/26 10:19:12;;;;;;;5.82;3.10;;;21.40;32.60;;;;;;5031560;28;20194;-32
2022/04/26 10:21:40;;;;;;;4.88;2.83;;;21.40;33.10;;;;;;5031322;28;20197;-32
2022/04/26 10:24:19;;;;;;;3.67;3.10;;;21.40;33.00;;;;;;5031520;28;20178;-32
2022/04/26 10:26:46;;;;;;;3.90;3.00;;;21.40;32.60;;;;;;5031656;28;20158;-32
2022/04/26 10:29:14;;;;;;;4.20;2.83;;;21.60;32.40;;;;;;5031552;28;20174;-32
2022/04/26 10:31:48;;;;;;;4.40;3.03;;;21.70;32.70;;;;;;5030846;28;20190;-32
2022/04/26 10:34:16;;;;;;;4.20;3.30;;;21.70;33.00;;;;;;5031358;28;20233;-32
2022/04/26 10:36:43;;;;;;;4.05;2.50;;;21.60;32.40;;;;;;5031223;28;20173;-32
2022/04/26 10:39:09;;;;;;;3.65;2.13;;;21.50;32.20;;;;;;5034953;28;20642;-32
2022/04/26 10:41:37;;;;;;;3.20;2.43;;;21.50;32.10;;;;;;5034380;28;20722;-32
2022/04/26 10:44:17;;;;;;;5.35;3.38;;;21.60;32.70;;;;;;5034984;28;20197;-32
2022/04/26 10:46:55;;;;;;;3.15;2.55;;;21.70;32.10;;;;;;5034651;28;20674;-32
2022/04/26 10:49:23;;;;;;;5.15;2.90;;;21.70;32.10;;;;;;5034957;28;20224;-32
2022/04/26 10:51:51;;;;;;;4.45;2.95;;;21.60;31.60;;;;;;5034254;28;20678;-32
2022/04/26 10:54:46;;;;;;;4.40;3.08;;;21.50;31.70;;;;;;5034578;28;20259;-32
2022/04/26 10:57:16;;;;;;;3.90;2.70;;;21.40;32.10;;;;;;5034483;28;20209;-32
2022/04/26 10:59:43;;;;;;;4.25;2.40;;;21.30;31.30;;;;;;5034506;28;20437;-32
2022/04/26 11:02:15;;;;;;;3.92;2.50;;;21.30;32.10;;;;;;5034449;28;20206;-32
2022/04/26 11:04:41;;;;;;;3.63;2.78;;;21.30;32.20;;;;;;5034636;28;20250;-32
2022/04/26 11:07:11;;;;;;;3.87;2.50;;;21.20;31.70;;;;;;5034472;28;20227;-32
2022/04/26 11:09:50;;;;;;;4.75;3.05;;;21.20;31.90;;;;;;5034578;28;20822;-32
2022/04/26 11:12:20;;;;;;;4.38;3.10;;;21.10;32.20;;;;;;5034086;28;20194;-32
2022/04/26 11:14:47;;;;;;;3.75;3.10;;;21.10;31.60;;;;;;5034405;28;20255;-32
2022/04/26 11:17:15;;;;;;;2.95;1.90;;;21.10;32.20;;;;;;5034060;28;20201;-32
2022/04/26 11:19:55;;;;;;;3.13;2.53;;;21.20;32.70;;;;;;5034315;28;20178;-32
2022/04/26 11:22:22;;;;;;;3.45;2.70;;;21.40;32.10;;;;;;5034101;28;20225;-32
2022/04/26 11:30:29;;;;;;;2.80;2.17;;;22.00;32.20;;;;;;5034178;28;20639;-32
2022/04/26 11:33:06;;;;;;;6.10;3.03;;;22.30;31.20;;;;;;5034542;28;20225;-32
2022/04/26 11:35:34;;;;;;;5.20;2.67;;;22.60;30.80;;;;;;5033862;28;20466;-32
2022/04/26 11:38:08;;;;;;;4.13;2.50;;;22.80;30.90;;;;;;5033996;28;20456;-32
2022/04/26 11:40:40;;;;;;;5.00;3.17;;;23.20;30.90;;;;;;5033809;28;20464;-32
2022/04/26 11:43:14;;;;;;;4.77;3.30;;;23.40;28.90;;;;;;5033564;28;20443;-32
2022/04/26 11:45:45;;;;;;;3.67;2.50;;;23.60;29.50;;;;;;5033509;28;20409;-32
2022/04/26 11:48:16;;;;;;;5.60;3.00;;;23.80;29.30;;;;;;5033079;28;20516;-32
2022/04/26 11:50:43;;;;;;;4.50;2.90;;;24.00;29.70;;;;;;5033358;28;20417;-32
2022/04/26 11:53:14;;;;;;;3.30;2.47;;;24.20;29.10;;;;;;5033238;28;20475;-33
2022/04/26 11:55:42;;;;;;;4.27;2.97;;;24.50;29.20;;;;;;5033762;28;20384;-32
2022/04/26 11:58:09;;;;;;;3.70;2.87;;;24.70;28.90;;;;;;5033674;28;20417;-32
2022/04/26 12:00:36;;;;;;;4.03;2.83;;;24.80;28.50;;;;;;5033096;28;20771;-32
2022/04/26 12:03:02;;;;;;;3.40;2.40;;;24.90;29.50;;;;;;5033316;28;20440;-32
2022/04/26 12:05:32;;;;;;;4.00;2.23;;;25.00;28.00;;;;;;5033210;28;20795;-32
2022/04/26 12:07:58;;;;;;;3.23;2.60;;;24.80;27.70;;;;;;5033153;28;20420;-32
2022/04/26 12:10:28;;;;;;;4.37;3.20;;;24.60;27.80;;;;;;5033018;28;20417;-32
2022/04/26 12:13:02;;;;;;;4.50;2.57;;;24.40;27.80;;;;;;5032961;28;20671;-32
2022/04/26 12:15:33;;;;;;;3.57;2.77;;;24.20;27.50;;;;;;5032930;28;20619;-32
2022/04/26 12:18:13;;;;;;;5.50;3.53;;;24.00;27.50;;;;;;5033148;28;20405;-32
2022/04/26 12:21:02;;;;;;;3.53;2.20;;;23.90;28.40;;;;;;5032980;28;20388;-32
2022/04/26 12:23:29;;;;;;;4.60;3.33;;;23.80;28.50;;;;;;5033153;28;20751;-32
2022/04/26 12:26:07;;;;;;;5.60;2.90;;;24.00;28.80;;;;;;5032761;28;20440;-32
2022/04/26 12:28:45;;;;;;;4.30;2.90;;;24.20;28.50;;;;;;5033141;28;20428;-32
2022/04/26 12:31:30;;;;;;;3.67;2.47;;;24.30;26.60;;;;;;5032503;28;20420;-32
2022/04/26 12:34:12;;;;;;;3.13;2.30;;;24.30;27.40;;;;;;5032669;28;20826;-33
2022/04/26 12:36:53;;;;;;;3.87;2.20;;;24.30;28.10;;;;;;5032975;28;20401;-33
2022/04/26 12:39:24;;;;;;;4.70;3.07;;;24.40;27.40;;;;;;5032774;28;20409;-32
2022/04/26 12:41:52;;;;;;;5.03;3.30;;;24.50;27.70;;;;;;5032474;28;20478;-32
2022/04/26 12:44:19;;;;;;;4.30;2.90;;;24.80;28.40;;;;;;5032578;28;20427;-33
2022/04/26 12:52:37;;;;;;;2.63;2.20;;;25.50;26.50;;;;;;5031858;28;20602;-33
2022/04/26 12:55:03;;;;;;;3.63;2.60;;;25.70;26.70;;;;;;5032184;28;20496;-32
2022/04/26 12:57:29;;;;;;;2.97;2.53;;;25.90;26.40;;;;;;5032589;28;20444;-33
2022/04/26 12:59:54;;;;;;;3.80;2.67;;;26.00;25.70;;;;;;5031515;28;20413;-32
2022/04/26 13:02:20;;;;;;;2.73;1.73;;;26.10;25.70;;;;;;5031982;28;20193;-33
2022/04/26 13:04:45;;;;;;;3.80;2.20;;;26.20;26.40;;;;;;5032137;28;20175;-33
2022/04/26 13:07:11;;;;;;;2.70;2.00;;;26.30;26.10;;;;;;5031916;28;20257;-33
2022/04/26 13:09:37;;;;;;;3.07;2.70;;;26.30;24.70;;;;;;5032423;28;20177;-33
2022/04/26 13:12:03;;;;;;;2.97;2.23;;;26.40;25.50;;;;;;5031820;28;20741;-33
2022/04/26 13:14:29;;;;;;;2.93;2.10;;;26.50;25.70;;;;;;5031904;28;20698;-33
2022/04/26 13:16:54;;;;;;;4.20;2.93;;;26.40;24.20;;;;;;5032010;28;20405;-32
2022/04/26 13:19:20;;;;;;;4.57;2.70;;;26.20;23.20;;;;;;5032083;28;20174;-33
2022/04/26 13:21:45;;;;;;;2.87;2.00;;;25.90;23.60;;;;;;5031760;28;20213;-32
2022/04/26 13:24:11;;;;;;;4.47;2.40;;;25.70;24.80;;;;;;5031818;28;20190;-33
2022/04/26 13:26:37;;;;;;;2.33;1.70;;;25.70;25.30;;;;;;5031934;28;20174;-33
2022/04/26 13:29:03;;;;;;;2.87;1.80;;;25.80;24.60;;;;;;5031955;28;20197;-32
2022/04/26 13:31:29;;;;;;;2.97;1.93;;;25.90;24.70;;;;;;5031642;28;20229;-32
2022/04/26 13:33:56;;;;;;;2.43;1.57;;;26.10;25.40;;;;;;5031831;28;20506;-32
2022/04/26 13:36:22;;;;;;;3.37;2.10;;;26.20;25.70;;;;;;5031844;28;20499;-33
2022/04/26 13:38:47;;;;;;;2.53;1.93;;;26.30;23.40;;;;;;5031785;28;20492;-33
2022/04/26 13:41:13;;;;;;;4.67;2.00;;;26.30;23.30;;;;;;5031475;28;20598;-32
2022/04/26 13:43:41;;;;;;;3.33;2.40;;;26.30;24.10;;;;;;5031723;28;20178;-33
2022/04/26 13:46:07;;;;;;;2.53;1.97;;;26.20;23.30;;;;;;5031998;28;20174;-33
2022/04/26 13:48:33;;;;;;;2.43;1.87;;;26.00;23.90;;;;;;5031596;28;20495;-33
2022/04/26 13:50:58;;;;;;;3.60;2.67;;;25.90;23.20;;;;;;5031819;28;20177;-33
2022/04/26 13:53:24;;;;;;;11.43;5.47;;;25.90;24.40;;;;;;5031334;28;20640;-32
2022/04/26 13:55:50;;;;;;;8.13;2.90;;;25.80;24.40;;;;;;5031839;28;20634;-32
2022/04/26 13:58:15;;;;;;;3.33;2.07;;;25.70;22.50;;;;;;5031801;28;20193;-33
2022/04/26 14:00:41;;;;;;;5.33;1.90;;;25.70;22.70;;;;;;5031268;28;20240;-33
2022/04/26 14:03:07;;;;;;;3.23;1.90;;;25.70;24.10;;;;;;5031740;28;20237;-33
2022/04/26 14:05:34;;;;;;;3.67;3.13;;;25.50;22.50;;;;;;5031775;28;20269;-33
2022/04/26 14:08:00;;;;;;;3.67;2.40;;;25.30;23.40;;;;;;5031711;28;20181;-32
2022/04/26 14:10:25;;;;;;;3.87;2.43;;;25.10;24.20;;;;;;5031158;28;20467;-32
2022/04/26 14:12:51;;;;;;;3.43;2.30;;;24.90;24.40;;;;;;5034574;28;20266;-33
2022/04/26 14:23:31;;;;;;;2.10;1.63;;;24.20;22.30;;;;;;5035363;28;20443;-30
2022/04/26 14:25:57;;;;;;;2.23;1.87;;;23.90;24.90;;;;;;5035285;28;20954;-30
2022/04/26 14:28:22;;;;;;;2.07;1.60;;;23.70;25.30;;;;;;5035248;28;20177;-30
2022/04/26 14:30:48;;;;;;;3.90;2.00;;;23.50;23.40;;;;;;5034596;28;20182;-30
2022/04/26 14:33:14;;;;;;;3.10;2.10;;;23.20;22.90;;;;;;5034844;28;20209;-30
2022/04/26 14:35:40;;;;;;;3.00;1.67;;;22.90;24.20;;;;;;5034864;28;20174;-30
2022/04/26 14:38:10;;;;;;;2.43;1.53;;;22.70;25.20;;;;;;5034952;28;20439;-30
2022/04/26 14:40:37;;;;;;;3.33;2.17;;;22.50;23.90;;;;;;5034845;28;20400;-30
2022/04/26 14:43:04;;;;;;;2.33;2.00;;;22.30;24.00;;;;;;5035307;28;20471;-29
2022/04/26 14:45:32;;;;;;;3.30;2.60;;;22.10;24.20;;;;;;5034207;28;20424;-30
2022/04/26 14:47:58;;;;;;;3.23;2.10;;;21.90;25.40;;;;;;5034594;28;20408;-29
2022/04/26 14:50:26;;;;;;;3.50;3.20;;;21.80;25.40;;;;;;5034776;28;20416;-30
2022/04/26 14:52:53;;;;;;;4.20;2.57;;;21.70;26.60;;;;;;5034271;28;20478;-29
2022/04/26 14:55:18;;;;;;;2.90;2.20;;;21.60;26.20;;;;;;5034799;28;20432;-29
2022/04/26 14:57:44;;;;;;;6.03;2.83;;;21.50;26.50;;;;;;5034749;28;20878;-29
2022/04/26 15:00:10;;;;;;;6.77;2.97;;;21.40;26.00;;;;;;5034430;28;20455;-29
2022/04/26 15:02:38;;;;;;;3.53;2.30;;;21.40;26.10;;;;;;5034601;28;20193;-30
2022/04/26 15:05:07;;;;;;;2.83;2.27;;;21.30;26.30;;;;;;5034303;28;20412;-30
2022/04/26 15:09:42;;;;;;;6.67;3.07;;;21.20;26.20;;;;;;5034203;28;20412;-30
2022/04/26 15:10:19;;;;;;;5.17;2.80;;;21.10;26.10;;;;;;5033600;28;20420;-29
2022/04/26 15:18:13;;;;;;;3.50;2.67;;;20.70;26.10;;;;;;5034357;28;20204;-29
2022/04/26 15:20:42;;;;;;;3.20;2.20;;;20.60;26.30;;;;;;5033815;28;20412;-29
2022/04/26 15:23:08;;;;;;;3.33;2.17;;;20.60;26.90;;;;;;5033240;28;20779;-30
2022/04/26 15:25:35;;;;;;;6.03;2.37;;;20.40;27.10;;;;;;5034241;28;20178;-29
2022/04/26 15:28:02;;;;;;;3.10;1.98;;;20.40;27.40;;;;;;5034113;28;20181;-30
2022/04/26 15:30:27;;;;;;;2.15;1.83;;;20.20;27.40;;;;;;5033874;28;20204;-30
2022/04/26 15:32:53;;;;;;;3.10;2.20;;;20.20;27.80;;;;;;5033833;28;20687;-29
2022/04/26 15:35:19;;;;;;;3.97;2.97;;;20.20;27.30;;;;;;5033756;28;20178;-30
2022/04/26 15:37:45;;;;;;;3.33;2.50;;;20.20;27.70;;;;;;5102340;22;20217;-34
2022/04/26 15:40:11;;;;;;;3.30;2.67;;;20.20;27.80;;;;;;5073544;28;20611;-34
2022/04/26 15:42:37;;;;;;;3.08;2.33;;;20.10;28.30;;;;;;5073546;28;20172;-34
2022/04/26 15:45:02;;;;;;;2.97;1.90;;;20.20;28.00;;;;;;5073501;28;20231;-34
2022/04/26 15:47:29;;;;;;;2.97;2.47;;;20.10;28.20;;;;;;5058909;28;20709;-34
2022/04/26 15:49:55;;;;;;;8.88;2.47;;;20.10;28.10;;;;;;5053623;28;20477;-34
2022/04/26 15:52:21;;;;;;;4.65;2.35;;;20.10;27.80;;;;;;5053157;28;20573;-34
2022/04/26 15:54:47;;;;;;;3.92;2.22;;;20.00;27.60;;;;;;5053490;28;20200;-34
2022/04/26 15:57:13;;;;;;;2.83;1.97;;;20.00;27.90;;;;;;5052744;28;20516;-34
2022/04/26 15:59:39;;;;;;;3.43;2.00;;;20.00;27.90;;;;;;5053255;28;20170;-34
2022/04/26 16:02:07;;;;;;;2.28;1.88;;;19.90;28.30;;;;;;5053136;28;20243;-35
2022/04/26 16:04:33;;;;;;;3.28;2.20;;;20.00;28.00;;;;;;5053435;28;20234;-35
2022/04/26 16:06:59;;;;;;;2.60;1.90;;;19.90;27.80;;;;;;5053117;28;20217;-35
2022/04/26 16:20:30;;;;;;;3.83;2.35;;;20.00;28.40;;;;;;5052825;28;20176;-35
2022/04/26 16:23:06;;;;;;;3.08;1.98;;;20.00;28.50;;;;;;5053028;28;20168;-35
2022/04/26 16:25:32;;;;;;;2.90;1.90;;;20.00;28.30;;;;;;5053147;28;20161;-34
2022/04/26 16:28:02;;;;;;;6.50;2.10;;;20.00;28.60;;;;;;5052770;28;20212;-34
2022/04/26 16:30:30;;;;;;;3.28;2.10;;;20.00;28.50;;;;;;5052538;28;20200;-35
2022/04/26 16:32:57;;;;;;;2.60;2.08;;;20.10;28.70;;;;;;5052627;28;20189;-35
2022/04/26 16:35:24;;;;;;;3.45;1.90;;;20.20;28.50;;;;;;5052798;28;20264;-35
2022/04/26 16:37:52;;;;;;;2.80;1.98;;;20.20;28.20;;;;;;5052518;28;20201;-35
2022/04/26 16:40:18;;;;;;;3.15;1.83;;;20.30;27.90;;;;;;5052300;28;20636;-34
2022/04/26 16:42:44;;;;;;;2.95;2.05;;;20.40;28.00;;;;;;5052292;28;20174;-35
2022/04/26 16:45:10;;;;;;;4.00;2.00;;;20.40;27.40;;;;;;5052432;28;20169;-34
2022/04/26 16:47:36;;;;;;;2.70;2.03;;;20.30;26.80;;;;;;5052466;28;20189;-35
2022/04/26 16:50:04;;;;;;;3.50;1.50;;;20.20;26.00;;;;;;5052382;28;20173;-34
2022/04/26 16:52:30;;;;;;;4.38;2.65;;;20.10;26.90;;;;;;5052416;28;20411;-35
2022/04/26 16:54:55;;;;;;;3.40;1.67;;;20.10;26.70;;;;;;5052393;28;20284;-34
2022/04/26 16:57:21;;;;;;;3.30;2.53;;;20.00;26.70;;;;;;5053448;28;20189;-34
2022/04/26 16:59:47;;;;;;;3.50;2.00;;;20.00;26.90;;;;;;5053778;28;20486;-34
2022/04/26 17:02:14;;;;;;;3.60;2.30;;;20.00;27.30;;;;;;5053384;28;20934;-34
2022/04/26 17:04:41;;;;;;;3.38;2.08;;;20.00;27.50;;;;;;5052747;28;20185;-35
2022/04/26 17:07:06;;;;;;;5.35;2.58;;;20.00;28.20;;;;;;5052077;28;20296;-34
2022/04/26 17:09:34;;;;;;;4.13;2.20;;;20.00;27.40;;;;;;5051993;28;20208;-34
2022/04/26 17:12:00;;;;;;;5.43;2.65;;;19.90;27.60;;;;;;5051863;28;20252;-34
2022/04/26 17:14:26;;;;;;;3.78;2.45;;;20.00;27.90;;;;;;5052098;28;20674;-34
2022/04/26 17:16:52;;;;;;;2.93;2.40;;;20.00;28.20;;;;;;5052058;28;20207;-34